Time;durP1;ratioP1;P1;durP2;ratioP2;P2;SDS_P1;SDS_P2;PMS_P1;PMS_P2;Temp;Humidity;BMP_temperature;BMP_pressure;BME280_temperature;BME280_humidity;BME280_pressure;Samples;Min_cycle;Max_cycle;Signal;HPM_P1;HPM_P2
2024/01/26 00:00:53;;;;;;;8.70;3.00;;;;;;;2.43;97.24;99104.58;436365;1252;108006;-40
2024/01/26 00:11:20;;;;;;;9.20;2.80;;;;;;;2.39;97.66;99109.25;436302;1253;99215;-40
2024/01/26 00:21:28;;;;;;;12.00;4.40;;;;;;;2.34;97.74;99129.23;436389;1253;107835;-41
2024/01/26 00:31:35;;;;;;;11.30;4.20;;;;;;;2.32;97.86;99139.06;436300;1254;98034;-38
2024/01/26 00:41:42;;;;;;;10.30;3.50;;;;;;;2.32;97.77;99146.89;436338;1258;111269;-38
2024/01/26 00:51:49;;;;;;;12.40;4.10;;;;;;;2.26;97.93;99151.02;436074;1248;398318;-39
2024/01/26 01:01:57;;;;;;;11.50;3.90;;;;;;;2.24;98.00;99164.39;436439;1253;99079;-39
2024/01/26 01:12:05;;;;;;;14.20;4.60;;;;;;;2.22;97.95;99160.64;436548;1248;106015;-41
2024/01/26 01:22:12;;;;;;;15.70;5.70;;;;;;;2.23;97.89;99166.80;436601;1252;98033;-37
2024/01/26 01:32:19;;;;;;;13.20;5.90;;;;;;;2.23;98.21;99168.85;436246;1253;111065;-38
2024/01/26 01:42:26;;;;;;;10.50;4.60;;;;;;;2.17;98.47;99171.60;436211;1250;107975;-39
2024/01/26 01:52:34;;;;;;;15.40;6.50;;;;;;;2.19;98.43;99177.73;436406;1248;99411;-39
2024/01/26 02:02:40;;;;;;;9.60;4.70;;;;;;;2.20;98.49;99187.93;436242;1248;107861;-38
2024/01/26 02:22:53;;;;;;;14.50;7.40;;;;;;;2.22;98.54;99212.69;436358;1254;111258;-39
2024/01/26 02:33:00;;;;;;;16.30;6.70;;;;;;;2.21;98.57;99214.00;436179;1248;108631;-39
2024/01/26 02:43:08;;;;;;;9.60;4.50;;;;;;;2.20;98.52;99210.64;436268;1253;99231;-39
2024/01/26 02:53:18;;;;;;;10.30;5.70;;;;;;;2.21;98.58;99213.77;436251;1254;106780;-39
2024/01/26 03:03:25;;;;;;;23.40;7.60;;;;;;;2.23;98.57;99213.38;436420;1251;98406;-39
2024/01/26 03:13:33;;;;;;;14.20;5.40;;;;;;;2.16;98.82;99229.26;435357;1251;110905;-39
2024/01/26 03:23:41;;;;;;;6.90;3.60;;;;;;;2.15;98.90;99226.78;435300;1251;107781;-39
2024/01/26 03:33:48;;;;;;;14.50;5.40;;;;;;;2.19;98.74;99228.80;435168;1254;99259;-39
2024/01/26 03:43:56;;;;;;;13.50;5.40;;;;;;;2.24;98.71;99224.14;435472;1250;110891;-38
2024/01/26 03:54:03;;;;;;;15.40;6.90;;;;;;;2.25;98.62;99237.55;435704;1253;107289;-39
2024/01/26 04:04:10;;;;;;;11.90;9.10;;;;;;;2.25;98.60;99235.14;435567;1254;99263;-39
2024/01/26 04:14:17;;;;;;;29.90;10.00;;;;;;;2.23;98.85;99232.16;435379;1253;108748;-39
2024/01/26 04:24:27;;;;;;;24.00;8.10;;;;;;;2.19;98.87;99241.16;435533;1255;99214;-39
2024/01/26 04:34:33;;;;;;;23.00;8.60;;;;;;;2.22;98.66;99245.05;435657;1253;111945;-39
2024/01/26 04:44:41;;;;;;;19.20;8.40;;;;;;;2.26;98.59;99253.81;435468;1253;107515;-40
2024/01/26 04:54:48;;;;;;;20.60;9.20;;;;;;;2.28;98.54;99264.48;435997;1253;99124;-39
2024/01/26 05:04:55;;;;;;;33.40;14.60;;;;;;;2.31;98.66;99265.63;436314;1253;109422;-39
2024/01/26 05:15:02;;;;;;;37.10;17.50;;;;;;;2.21;98.49;99268.10;436359;1254;98852;-38
2024/01/26 05:25:12;;;;;;;32.10;13.40;;;;;;;2.04;98.27;99265.64;436256;1252;111069;-40
2024/01/26 05:35:19;;;;;;;23.70;10.00;;;;;;;2.00;98.30;99273.23;436019;1248;107257;-40
2024/01/26 05:45:26;;;;;;;18.60;6.50;;;;;;;2.02;98.10;99273.83;436226;1254;99234;-39
2024/01/26 05:55:33;;;;;;;22.10;7.70;;;;;;;2.00;98.19;99269.77;436310;1250;112909;-40
2024/01/26 06:05:39;;;;;;;21.90;6.20;;;;;;;1.91;98.09;99261.29;436273;1253;108453;-38
2024/01/26 06:15:47;;;;;;;28.10;11.20;;;;;;;1.87;98.10;99272.83;436498;1254;99335;-39
2024/01/26 06:25:53;;;;;;;33.00;8.90;;;;;;;1.78;98.17;99282.42;436567;1248;111493;-38
2024/01/26 06:36:00;;;;;;;15.30;6.90;;;;;;;1.72;98.12;99283.61;436695;1253;107353;-38
2024/01/26 06:46:08;;;;;;;33.40;12.60;;;;;;;1.79;97.91;99290.51;436424;1248;98659;-39
2024/01/26 06:56:15;;;;;;;27.70;10.10;;;;;;;1.92;98.13;99295.61;436263;1247;113013;-39
2024/01/26 07:06:22;;;;;;;14.40;5.70;;;;;;;2.10;98.20;99304.47;436568;1248;108510;-39
2024/01/26 07:26:37;;;;;;;24.30;8.80;;;;;;;2.28;98.33;99312.23;436336;1253;108552;-38
2024/01/26 07:36:44;;;;;;;27.10;9.80;;;;;;;2.30;98.18;99324.02;436428;1248;99188;-38
2024/01/26 07:46:51;;;;;;;20.30;7.90;;;;;;;2.35;98.00;99330.56;436152;1253;112084;-37
2024/01/26 07:56:58;;;;;;;24.40;7.10;;;;;;;2.47;97.91;99327.61;436115;1247;108507;-39
2024/01/26 08:07:05;;;;;;;22.40;7.10;;;;;;;2.69;98.06;99324.93;436155;1250;99858;-38
2024/01/26 08:27:19;;;;;;;23.20;11.50;;;;;;;2.98;98.10;99324.77;435537;1251;98072;-38
2024/01/26 08:37:27;;;;;;;25.80;8.90;;;;;;;3.02;98.05;99324.02;435457;1254;111436;-40
2024/01/26 08:47:33;;;;;;;18.40;7.60;;;;;;;3.10;97.73;99320.84;435317;1250;108197;-39
2024/01/26 08:57:40;;;;;;;18.50;4.90;;;;;;;3.26;97.66;99318.80;435478;1253;98528;-39
2024/01/26 09:07:48;;;;;;;16.90;4.90;;;;;;;3.40;97.75;99299.19;435409;1253;107775;-39
2024/01/26 09:28:01;;;;;;;20.30;7.20;;;;;;;3.47;97.67;99290.52;435362;1253;111095;-40
2024/01/26 09:38:08;;;;;;;10.30;4.90;;;;;;;3.55;97.58;99286.39;435166;1250;108462;-38
2024/01/26 09:48:17;;;;;;;10.90;3.60;;;;;;;3.77;97.54;99280.84;435412;1253;99138;-39
2024/01/26 10:08:38;;;;;;;18.10;7.20;;;;;;;4.25;97.76;99275.29;435492;1253;108142;-39
2024/01/26 10:18:46;;;;;;;13.70;5.10;;;;;;;4.35;97.47;99268.13;435318;1250;98004;-39
2024/01/26 10:28:56;;;;;;;16.10;7.90;;;;;;;4.60;97.38;99258.27;435342;1253;108666;-40
2024/01/26 10:49:12;;;;;;;8.20;2.70;;;;;;;4.88;97.03;99221.46;435378;1253;111552;-39
2024/01/26 10:59:20;;;;;;;13.30;4.60;;;;;;;4.88;96.44;99203.48;435179;1253;108509;-38
2024/01/26 11:09:32;;;;;;;17.40;5.00;;;;;;;4.85;95.90;99186.75;435367;1253;98011;-39
2024/01/26 11:19:48;;;;;;;11.00;3.30;;;;;;;5.06;96.05;99173.27;435425;1250;108167;-39
2024/01/26 11:29:55;;;;;;;32.00;5.20;;;;;;;5.09;95.61;99186.05;435345;1251;98716;-39
2024/01/26 11:40:04;;;;;;;8.10;2.60;;;;;;;5.04;95.00;99161.99;435635;1250;111085;-38
2024/01/26 12:00:18;;;;;;;13.90;4.80;;;;;;;5.27;94.31;99147.56;435292;1253;99250;-39
2024/01/26 12:10:26;;;;;;;13.10;5.30;;;;;;;5.42;94.11;99133.46;435344;1253;106751;-39
2024/01/26 12:20:32;;;;;;;16.40;4.50;;;;;;;5.41;93.75;99123.13;435431;1253;99247;-40
2024/01/26 12:30:39;;;;;;;11.80;3.10;;;;;;;5.50;93.17;99090.88;435456;1249;111590;-39
2024/01/26 12:40:47;;;;;;;8.30;3.50;;;;;;;5.62;92.47;99061.09;435213;1253;107945;-39
2024/01/26 12:50:55;;;;;;;12.80;5.00;;;;;;;5.63;91.81;99039.83;435011;1253;502377;-38
2024/01/26 13:01:02;;;;;;;10.10;3.70;;;;;;;5.38;91.24;99008.04;435859;1253;108511;-40
2024/01/26 13:31:22;;;;;;;30.10;10.20;;;;;;;5.27;90.42;98955.20;435343;1253;108220;-39
2024/01/26 13:41:30;;;;;;;22.10;8.10;;;;;;;5.23;90.20;98938.73;435602;1253;99194;-39
2024/01/26 14:01:41;;;;;;;19.30;7.10;;;;;;;5.08;89.64;98913.20;435348;1253;97972;-39
2024/01/26 14:11:48;;;;;;;23.80;8.20;;;;;;;5.00;89.13;98907.73;435244;1253;110892;-38
2024/01/26 14:21:55;;;;;;;24.00;10.30;;;;;;;5.00;89.09;98893.70;435376;1253;108656;-39
2024/01/26 14:32:03;;;;;;;37.80;12.90;;;;;;;4.89;88.79;98877.73;435475;1250;99224;-40
2024/01/26 14:42:11;;;;;;;33.60;13.60;;;;;;;4.66;88.42;98863.29;435271;1253;108370;-38
2024/01/26 15:02:26;;;;;;;30.60;12.40;;;;;;;4.40;87.79;98810.88;435451;1250;112184;-39
2024/01/26 15:12:33;;;;;;;33.20;12.30;;;;;;;4.18;87.88;98793.53;435487;1253;106462;-39
2024/01/26 15:22:40;;;;;;;27.90;12.60;;;;;;;3.91;87.79;98766.13;435388;1253;98581;-38
2024/01/26 15:32:47;;;;;;;37.00;12.30;;;;;;;3.70;87.65;98748.37;435394;1253;110483;-38
2024/01/26 15:42:54;;;;;;;27.80;12.60;;;;;;;3.69;87.57;98735.20;435425;1253;108606;-39
2024/01/26 15:53:01;;;;;;;42.70;15.80;;;;;;;3.72;87.57;98720.27;435405;1253;98076;-39
2024/01/26 16:13:16;;;;;;;36.20;16.80;;;;;;;3.62;87.48;98689.58;435606;1253;99208;-38
2024/01/26 16:23:22;;;;;;;28.60;12.30;;;;;;;3.54;87.31;98675.73;435338;1253;111067;-40
2024/01/26 16:33:29;;;;;;;28.40;11.00;;;;;;;3.55;86.99;98646.42;435539;1253;108653;-39
2024/01/26 16:43:36;;;;;;;39.70;15.70;;;;;;;3.55;86.97;98627.15;435466;1250;99243;-39
2024/01/26 17:03:50;;;;;;;32.00;13.30;;;;;;;3.34;86.37;98591.27;435349;1253;99367;-39
2024/01/26 17:13:57;;;;;;;27.70;12.80;;;;;;;3.40;86.06;98566.39;435370;1253;112099;-40
2024/01/26 17:24:03;;;;;;;42.30;17.30;;;;;;;3.46;85.99;98549.44;435501;1253;108364;-39
2024/01/26 17:34:09;;;;;;;42.50;16.00;;;;;;;3.47;85.96;98534.13;435374;1253;99224;-39
2024/01/26 17:54:21;;;;;;;25.40;11.70;;;;;;;3.69;86.11;98525.04;435424;1250;108906;-39
2024/01/26 18:04:27;;;;;;;34.60;15.60;;;;;;;3.75;86.16;98512.44;435613;1253;99256;-39
2024/01/26 18:14:34;;;;;;;37.90;15.60;;;;;;;3.72;86.37;98511.54;435448;1250;112854;-39
2024/01/26 18:24:41;;;;;;;25.90;12.00;;;;;;;3.69;86.69;98503.52;435171;1251;108554;-39
2024/01/26 18:34:48;;;;;;;29.40;12.60;;;;;;;3.66;87.26;98488.02;435249;1253;98026;-39
2024/01/26 18:44:56;;;;;;;30.30;14.00;;;;;;;3.61;87.75;98467.45;435244;1253;107327;-39
2024/01/26 18:55:03;;;;;;;26.40;11.60;;;;;;;3.57;88.43;98458.18;435202;1251;99204;-38
2024/01/26 19:05:10;;;;;;;32.10;13.20;;;;;;;3.52;89.09;98456.27;435446;1256;111785;-39
2024/01/26 20:21:45;;;;;;;17.20;9.50;;;;;;;4.59;92.52;98447.06;422215;1295;651073;-39
2024/01/26 20:31:50;;;;;;;13.90;8.80;;;;;;;4.57;94.15;98456.41;432858;1259;95304;-39
2024/01/26 20:41:55;;;;;;;10.60;6.70;;;;;;;4.64;94.58;98469.45;432723;1263;94564;-39
2024/01/26 20:51:59;;;;;;;14.20;8.30;;;;;;;4.81;95.53;98485.59;432754;1260;109343;-39
2024/01/26 21:02:04;;;;;;;15.60;6.20;;;;;;;5.07;96.93;98487.12;432803;1260;95007;-39
2024/01/26 21:12:20;;;;;;;9.10;5.40;;;;;;;5.31;97.93;98493.88;432703;1260;108566;-40
2024/01/26 21:23:00;;;;;;;13.90;6.00;;;;;;;5.46;98.48;98511.98;432838;1261;95022;-40
2024/01/26 21:33:05;;;;;;;10.50;5.10;;;;;;;5.60;99.62;98521.75;433673;1260;108312;-39
2024/01/26 21:43:09;;;;;;;8.00;3.90;;;;;;;5.61;99.59;98543.38;433569;1263;108539;-38
2024/01/26 21:53:33;;;;;;;6.10;3.20;;;;;;;5.59;99.57;98548.27;435103;1256;95658;-40
2024/01/26 22:03:38;;;;;;;4.00;1.70;;;;;;;5.53;99.48;98565.33;435294;1256;109260;-40
2024/01/26 22:13:42;;;;;;;2.40;1.40;;;;;;;5.47;98.92;98591.86;437293;1257;109109;-40
2024/01/26 22:23:51;;;;;;;2.60;1.20;;;;;;;5.37;98.36;98614.48;435283;1256;95300;-38
2024/01/26 22:43:57;;;;;;;2.60;1.40;;;;;;;5.21;97.47;98643.67;434291;1256;96003;-41
2024/01/26 23:14:08;;;;;;;5.40;1.70;;;;;;;4.28;96.15;98743.48;434222;1259;96559;-39
2024/01/26 23:24:10;;;;;;;3.90;1.00;;;;;;;4.18;95.16;98768.56;434379;1259;108742;-39
2024/01/26 23:44:21;;;;;;;7.70;1.70;;;;;;;4.09;92.69;98811.02;434230;1254;108530;-41
2024/01/26 23:54:23;;;;;;;11.40;2.90;;;;;;;4.07;89.74;98827.30;434218;1254;108058;-39
